Details From FTTJ - Ndjamena Hassan Djamous
To HEGN - Hurghada Intl
Flight Number -
Tags Generated
Created
Modified
Stats Distance 1,392 nm / 2,578 km
Max Altitude 0 ft / 0 m
Waypoints 3
Social Downloads 1
Likes 0
Share VATSIM

Download

Looking for another format? Having issues loading an existing format? Contact us
Advertisement - Login to hide

Notes

Generated

Route

FTTJ HGD HEGN

ID Type Via Altitude Latitude Longitude Leg Dist Tot Dist Heading (true) Name
O FTTJ APT - 0 ft / 0 m 12.12492˚ 15.02473˚ - 0 nm - -
HGD VOR - 0 ft / 0 m 27.17776˚ 33.79639˚ 1390 nm 1390 nm 47° / 53° HURGHADA VOR-DME
O HEGN APT - 0 ft / 0 m 27.19576˚ 33.79425˚ 1 nm 1391 nm 354° / 354° -

Altitude Profile

Advertisement - Login to hide

Weather


0- 5 10 15 20 25 30 35+ Temperature / ° C

Clouds and Precipitation
Forecast for 2017-12-18 00:00 UTC. Updated 20 minutes ago

Ground ~20,000 ft ~40,000 ft Winds

FTTJ

Details ICAO FTTJ (NDJ)
Name Ndjamena Hassan Djamous
Region Chad
Timezone Africa/Ndjamena (UTC+1.0)
Stats Elevation 968 ft / 295 m (AMSL)
Location 12.133718° 15.033962°
Runways 1
Magnetic Variation 1.184° E

METAR

FTTJ 172000Z 33004KT 7000 NSC 25/03 Q1011 NOSIG

Decode

TAF

TAF TAF FTTJ 171700Z 1718/1824 34004KT 4500 HZ NSC BECMG 1719/1721 CAVOK TEMPO 1804/1807 4500 HZ BECMG 1806/1808 06010KT

Decode

Departure Runways

ID Width Length Bearing (true) Bearing (mag) Surface Threshold Offset Overrun Length
05 148 ft / 45 m 9,200 ft / 2,804 m 45.72° 44.54° Asphalt 0 ft / 0 m 130 ft / 40 m
23 148 ft / 45 m 9,200 ft / 2,804 m 225.72° 224.54° Asphalt 0 ft / 0 m 200 ft / 61 m

HEGN

Details ICAO HEGN (HRG)
Name HURGHADA INTL
Region Egypt
Timezone Africa/Cairo (UTC+2.0)
Stats Elevation 52 ft / 16 m (AMSL)
Location 27.178308° 33.799397°
Runways 1
Magnetic Variation 4.212° E

METAR

HEGN 172100Z 00000KT CAVOK 16/11 Q1020 NOSIG

Decode

TAF

Not found

Destination Runways

ID Width Length Bearing (true) Bearing (mag) Surface Threshold Offset Overrun Length
16 148 ft / 45 m 13,169 ft / 4,014 m 165.29° 161.08° Asphalt 985 ft / 300 m 0 ft / 0 m
34 148 ft / 45 m 13,169 ft / 4,014 m 345.29° 341.08° Asphalt 0 ft / 0 m 200 ft / 61 m

Approach Navaids

Runway Type Ident Frequency Range Bearing (true) Bearing (mag) Slope Elevation
34 Localiser HIL 110.30 MHz 18 nm / 33 km 347.43° 343.22° - 56 ft / 17 m (AMSL)
34 Glidescope HIL 110.30 MHz 10 nm / 19 km 345.29° 341.08° 3.00° 64 ft / 20 m (AMSL)
34 DME HIL 110.30 MHz 18 nm / 33 km - - - 30 ft / 9 m (AMSL)